createdAt,value
2022-09-09T00:01:44.962Z,64.53
2022-09-09T00:04:17.592Z,69.97
2022-09-09T00:06:48.931Z,66.20
2022-09-09T00:09:18.989Z,65.67
2022-09-09T00:11:52.871Z,66.70
2022-09-09T00:14:26.284Z,65.70
2022-09-09T00:17:00.107Z,65.90
2022-09-09T00:19:33.651Z,64.90
2022-09-09T00:22:09.734Z,66.17
2022-09-09T00:24:41.373Z,66.23
2022-09-09T00:27:16.250Z,66.43
2022-09-09T00:29:46.717Z,65.33
2022-09-09T00:32:17.033Z,68.17
2022-09-09T00:34:50.547Z,66.37
2022-09-09T00:37:20.375Z,68.87
2022-09-09T00:39:49.578Z,67.17
2022-09-09T00:42:22.614Z,67.47
2022-09-09T00:44:58.919Z,65.27
2022-09-09T00:47:40.093Z,65.00
2022-09-09T00:50:18.060Z,65.70
2022-09-09T00:52:49.106Z,67.50
2022-09-09T00:55:21.586Z,65.70
2022-09-09T00:57:54.570Z,64.20
2022-09-09T01:00:25.295Z,65.40
2022-09-09T01:03:08.573Z,64.60
2022-09-09T01:05:43.440Z,64.87
2022-09-09T01:08:20.429Z,65.63
2022-09-09T01:10:54.219Z,65.50
2022-09-09T01:13:31.428Z,64.43
2022-09-09T01:16:04.295Z,68.10
2022-09-09T01:18:38.086Z,64.20
2022-09-09T01:21:12.111Z,64.33
2022-09-09T01:23:47.295Z,64.80
2022-09-09T01:26:41.829Z,65.20
2022-09-09T01:29:18.512Z,65.30
2022-09-09T01:31:55.790Z,64.17
2022-09-09T01:34:26.621Z,64.97
2022-09-09T01:36:59.900Z,64.67
2022-09-09T01:39:29.174Z,65.37
2022-09-09T01:42:07.615Z,65.00
2022-09-09T01:44:36.848Z,64.90
2022-09-09T01:47:06.075Z,65.47
2022-09-09T01:49:34.764Z,65.07
2022-09-09T01:52:10.184Z,64.90
2022-09-09T01:54:40.281Z,65.77
2022-09-09T01:57:20.383Z,65.30
2022-09-09T02:00:01.363Z,66.40
2022-09-09T02:02:34.775Z,66.30
2022-09-09T02:05:19.803Z,65.70
2022-09-09T02:07:50.997Z,67.30
2022-09-09T02:10:32.975Z,67.30
2022-09-09T02:13:18.738Z,66.57
2022-09-09T02:15:50.683Z,69.17
2022-09-09T02:18:24.459Z,66.40
2022-09-09T02:20:53.677Z,66.50
2022-09-09T02:23:22.598Z,66.17
2022-09-09T02:25:55.773Z,65.47
2022-09-09T02:28:28.660Z,66.47
2022-09-09T02:30:57.157Z,66.30
2022-09-09T02:33:36.866Z,66.47
2022-09-09T02:36:07.741Z,67.90
2022-09-09T02:38:40.815Z,68.07
2022-09-09T02:41:13.170Z,68.97
2022-09-09T02:43:43.323Z,69.07
2022-09-09T02:46:29.879Z,70.17
2022-09-09T02:49:03.704Z,68.23
2022-09-09T02:51:41.991Z,67.40
2022-09-09T02:54:18.961Z,71.70
2022-09-09T02:56:52.070Z,67.97
2022-09-09T02:59:23.445Z,71.10
2022-09-09T03:01:51.672Z,71.67
2022-09-09T03:04:20.032Z,70.37
2022-09-09T03:06:48.528Z,70.30
2022-09-09T03:09:20.974Z,70.07
2022-09-09T03:11:50.395Z,69.00
2022-09-09T03:14:22.225Z,69.07
2022-09-09T03:16:53.018Z,70.47
2022-09-09T03:19:21.772Z,70.77
2022-09-09T03:21:50.924Z,67.40
2022-09-09T03:24:19.565Z,69.80
2022-09-09T03:26:48.042Z,69.20
2022-09-09T03:29:18.942Z,69.07
2022-09-09T03:31:47.778Z,68.30
2022-09-09T03:34:17.569Z,68.87
2022-09-09T03:36:45.953Z,67.50
2022-09-09T03:39:15.378Z,72.13
2022-09-09T03:41:48.210Z,67.70
2022-09-09T03:44:17.023Z,67.00
2022-09-09T03:46:45.336Z,66.50
2022-09-09T03:49:13.350Z,68.70
2022-09-09T03:51:43.551Z,67.50
2022-09-09T03:54:14.232Z,67.47
2022-09-09T03:56:42.826Z,66.70
2022-09-09T03:59:15.342Z,67.20
2022-09-09T04:01:44.014Z,71.73
2022-09-09T04:04:13.106Z,67.40
2022-09-09T04:06:42.498Z,68.03
2022-09-09T04:09:10.489Z,68.30
2022-09-09T04:11:38.816Z,69.70
2022-09-09T04:14:09.314Z,70.07
2022-09-09T04:16:38.504Z,69.60
2022-09-09T04:19:07.629Z,69.97
2022-09-09T04:21:37.116Z,69.13
2022-09-09T04:24:06.951Z,68.97
2022-09-09T04:26:35.230Z,70.57
2022-09-09T04:29:03.823Z,71.37
2022-09-09T04:31:32.081Z,70.70
2022-09-09T04:34:03.246Z,71.73
2022-09-09T04:36:31.518Z,72.10
2022-09-09T04:39:02.595Z,68.77
2022-09-09T04:41:32.604Z,70.77
2022-09-09T04:44:01.806Z,71.83
2022-09-09T04:46:29.904Z,73.30
2022-09-09T04:48:59.151Z,71.27
2022-09-09T04:51:32.300Z,73.10
2022-09-09T04:54:00.733Z,71.07
2022-09-09T04:56:29.242Z,71.00
2022-09-09T04:59:01.232Z,71.60
2022-09-09T05:01:44.312Z,70.00
2022-09-09T05:04:13.104Z,69.30
2022-09-09T05:06:41.513Z,77.90
2022-09-09T05:09:09.567Z,71.77
2022-09-09T05:11:38.954Z,71.30
2022-09-09T05:14:18.354Z,71.53
2022-09-09T05:16:48.075Z,69.27
2022-09-09T05:19:16.293Z,71.30
2022-09-09T05:21:49.726Z,70.80
2022-09-09T05:24:21.235Z,71.87
2022-09-09T05:26:51.907Z,74.20
2022-09-09T05:29:21.597Z,73.13
2022-09-09T05:31:50.922Z,71.70
2022-09-09T05:34:22.345Z,73.73
2022-09-09T05:36:52.128Z,74.20
2022-09-09T05:39:22.050Z,73.87
2022-09-09T05:41:50.326Z,72.20
2022-09-09T05:44:18.712Z,71.60
2022-09-09T05:46:48.578Z,73.07
2022-09-09T05:49:17.065Z,73.00
2022-09-09T05:51:46.049Z,70.87
2022-09-09T05:54:16.747Z,70.67
2022-09-09T05:56:51.782Z,72.63
2022-09-09T05:59:20.712Z,72.27
2022-09-09T06:01:50.239Z,72.80
2022-09-09T06:04:26.696Z,72.37
2022-09-09T06:06:55.003Z,73.97
2022-09-09T06:09:24.395Z,73.20
2022-09-09T06:11:52.451Z,74.17
2022-09-09T06:14:22.894Z,75.50
2022-09-09T06:16:57.720Z,71.50
2022-09-09T06:19:29.831Z,73.47
2022-09-09T06:21:59.957Z,72.33
2022-09-09T06:24:31.226Z,72.60
2022-09-09T06:27:00.366Z,73.57
2022-09-09T06:29:31.871Z,74.57
2022-09-09T06:32:01.776Z,74.83
2022-09-09T06:34:30.073Z,72.17
2022-09-09T06:37:00.222Z,72.47
2022-09-09T06:39:34.945Z,73.97
2022-09-09T06:42:03.470Z,75.80
2022-09-09T06:44:56.529Z,71.77
2022-09-09T06:47:39.949Z,73.30
2022-09-09T06:50:09.369Z,71.27
2022-09-09T06:52:37.714Z,73.50
2022-09-09T06:55:07.455Z,72.90
2022-09-09T06:57:37.599Z,76.50
2022-09-09T07:00:12.408Z,72.70
2022-09-09T07:02:42.749Z,72.40
2022-09-09T07:05:11.937Z,71.67
2022-09-09T07:07:42.133Z,75.33
2022-09-09T07:10:12.091Z,72.03
2022-09-09T07:12:40.100Z,75.33
2022-09-09T07:15:12.112Z,74.00
2022-09-09T07:17:44.785Z,71.27
2022-09-09T07:20:13.540Z,75.37
2022-09-09T07:22:42.093Z,69.20
2022-09-09T07:25:11.509Z,72.33
2022-09-09T07:27:39.668Z,71.30
2022-09-09T07:30:09.352Z,79.18
2022-09-09T07:32:37.462Z,74.93
2022-09-09T07:35:08.017Z,73.80
2022-09-09T07:37:38.479Z,72.90
2022-09-09T07:40:07.664Z,72.90
2022-09-09T07:42:36.510Z,72.43
2022-09-09T07:45:06.662Z,74.57
2022-09-09T07:47:35.095Z,75.40
2022-09-09T07:50:03.755Z,74.07
2022-09-09T07:52:35.867Z,73.20
2022-09-09T07:55:07.571Z,71.77
2022-09-09T07:57:35.728Z,75.07
2022-09-09T08:00:05.333Z,73.07
2022-09-09T08:02:40.554Z,72.60
2022-09-09T08:05:10.652Z,71.57
2022-09-09T08:07:42.072Z,72.57
2022-09-09T08:10:10.421Z,72.27
2022-09-09T08:12:44.700Z,74.40
2022-09-09T08:15:24.490Z,73.10
2022-09-09T08:17:52.532Z,71.07
2022-09-09T08:20:21.487Z,71.77
2022-09-09T08:22:51.912Z,72.43
2022-09-09T08:25:20.670Z,71.27
2022-09-09T08:27:49.084Z,72.07
2022-09-09T08:30:17.335Z,73.70
2022-09-09T08:32:46.063Z,72.60
2022-09-09T08:35:15.638Z,71.60
2022-09-09T08:37:43.806Z,71.63
2022-09-09T08:40:20.276Z,72.73
2022-09-09T08:42:49.605Z,73.37
2022-09-09T08:45:45.418Z,69.10
2022-09-09T08:48:26.129Z,71.97
2022-09-09T08:50:55.994Z,70.33
2022-09-09T08:53:31.409Z,71.13
2022-09-09T08:56:04.528Z,75.17
2022-09-09T08:58:45.474Z,70.73
2022-09-09T09:01:32.776Z,86.47
2022-09-09T09:04:09.761Z,70.27
2022-09-09T09:06:46.954Z,72.93
2022-09-09T09:09:22.503Z,70.37
2022-09-09T09:11:53.960Z,69.37
2022-09-09T09:14:24.812Z,71.37
2022-09-09T09:16:59.080Z,70.60
2022-09-09T09:19:31.152Z,68.90
2022-09-09T09:22:04.120Z,69.20
2022-09-09T09:24:38.484Z,68.50
2022-09-09T09:27:14.757Z,69.80
2022-09-09T09:30:18.155Z,68.50
2022-09-09T09:32:37.041Z,71.97
2022-09-09T09:35:12.464Z,68.43
2022-09-09T09:40:35.112Z,68.40
2022-09-09T09:43:08.933Z,74.27
2022-09-09T09:45:55.407Z,69.17
2022-09-09T09:48:34.712Z,71.60
2022-09-09T09:51:11.522Z,69.80
2022-09-09T09:53:41.027Z,68.57
2022-09-09T09:56:15.235Z,69.60
2022-09-09T09:58:52.258Z,69.03
2022-09-09T10:01:26.593Z,68.17
2022-09-09T10:03:55.695Z,75.50
2022-09-09T10:06:33.413Z,69.33
2022-09-09T10:09:01.693Z,68.30
2022-09-09T10:11:41.842Z,67.17
2022-09-09T10:14:19.851Z,68.70
2022-09-09T10:16:58.364Z,68.53
2022-09-09T10:19:32.046Z,67.00
2022-09-09T10:22:08.232Z,69.10
2022-09-09T10:25:02.246Z,69.60
2022-09-09T10:27:34.214Z,67.57
2022-09-09T10:30:14.543Z,67.97
2022-09-09T10:32:49.849Z,70.30
2022-09-09T10:35:27.651Z,67.33
2022-09-09T10:38:11.957Z,67.57
2022-09-09T10:40:43.258Z,67.50
2022-09-09T10:43:18.974Z,71.90
2022-09-09T10:45:56.817Z,67.20
2022-09-09T10:48:38.234Z,69.30
2022-09-09T10:51:18.419Z,67.97
2022-09-09T10:53:55.048Z,67.87
2022-09-09T10:56:26.535Z,69.30
2022-09-09T10:58:56.623Z,68.13
2022-09-09T11:01:30.507Z,76.40
2022-09-09T11:04:02.774Z,67.60
2022-09-09T11:06:34.731Z,68.67
2022-09-09T11:09:04.093Z,69.07
2022-09-09T11:11:36.420Z,69.30
2022-09-09T11:14:07.616Z,68.30
2022-09-09T11:16:42.932Z,73.30
2022-09-09T11:19:16.668Z,68.67
2022-09-09T11:21:47.971Z,69.40
2022-09-09T11:24:20.207Z,67.50
2022-09-09T11:26:53.636Z,70.10
2022-09-09T11:29:54.826Z,74.20
2022-09-09T11:32:34.264Z,68.07
2022-09-09T11:35:27.368Z,68.50
2022-09-09T11:38:12.119Z,68.17
2022-09-09T11:40:40.383Z,69.60
2022-09-09T11:43:13.764Z,68.37
2022-09-09T11:45:43.052Z,67.27
2022-09-09T11:48:26.812Z,68.00
2022-09-09T11:51:03.929Z,67.73
2022-09-09T11:53:31.936Z,68.83
2022-09-09T11:56:08.630Z,68.47
2022-09-09T11:58:41.713Z,69.00
2022-09-09T12:01:17.977Z,68.27
2022-09-09T12:03:49.537Z,67.37
2022-09-09T12:06:23.249Z,67.70
2022-09-09T12:08:55.170Z,67.50
2022-09-09T12:11:27.834Z,67.63
2022-09-09T12:13:57.491Z,70.70
2022-09-09T12:16:36.429Z,69.87
2022-09-09T12:19:16.975Z,68.43
2022-09-09T12:21:50.808Z,68.53
2022-09-09T12:24:22.756Z,67.70
2022-09-09T12:26:57.336Z,70.90
2022-09-09T12:29:30.907Z,68.50
2022-09-09T12:32:02.508Z,71.13
2022-09-09T12:34:37.995Z,67.97
2022-09-09T12:37:10.886Z,67.70
2022-09-09T12:39:43.189Z,67.50
2022-09-09T12:42:18.799Z,68.00
2022-09-09T12:44:57.593Z,70.27
2022-09-09T12:47:39.665Z,67.87
2022-09-09T12:50:17.763Z,68.00
2022-09-09T12:52:46.830Z,66.60
2022-09-09T12:55:22.621Z,68.17
2022-09-09T12:58:15.720Z,67.47
2022-09-09T13:00:53.252Z,67.93
2022-09-09T13:03:23.230Z,67.40
2022-09-09T13:05:53.975Z,67.53
2022-09-09T13:08:22.689Z,67.67
2022-09-09T13:10:58.711Z,67.30
2022-09-09T13:13:30.947Z,67.27
2022-09-09T13:16:00.133Z,67.67
2022-09-09T13:18:31.274Z,67.10
2022-09-09T13:21:00.633Z,67.00
2022-09-09T13:23:30.385Z,67.40
2022-09-09T13:26:00.459Z,66.97
2022-09-09T13:28:33.649Z,67.17
2022-09-09T13:31:04.148Z,67.57
2022-09-09T13:33:34.817Z,67.13
2022-09-09T13:36:06.483Z,67.60
2022-09-09T13:38:38.433Z,68.60
2022-09-09T13:41:08.221Z,66.90
2022-09-09T13:43:39.444Z,67.57
2022-09-09T13:46:26.335Z,66.80
2022-09-09T13:48:58.838Z,66.10
2022-09-09T13:51:38.316Z,66.77
2022-09-09T13:54:07.587Z,66.47
2022-09-09T13:56:36.280Z,66.30
2022-09-09T13:59:05.388Z,66.87
2022-09-09T14:01:34.102Z,67.33
2022-09-09T14:04:02.441Z,67.37
2022-09-09T14:06:33.306Z,67.30
2022-09-09T14:09:02.737Z,68.30
2022-09-09T14:11:30.888Z,66.37
2022-09-09T14:13:58.888Z,66.93
2022-09-09T14:16:28.894Z,66.90
2022-09-09T14:18:58.233Z,68.27
2022-09-09T14:21:28.540Z,66.87
2022-09-09T14:23:59.042Z,66.57
2022-09-09T14:26:29.865Z,68.00
2022-09-09T14:28:58.248Z,66.97
2022-09-09T14:31:26.984Z,66.23
2022-09-09T14:33:55.148Z,68.20
2022-09-09T14:36:23.889Z,69.30
2022-09-09T14:38:52.983Z,67.10
2022-09-09T14:41:23.616Z,66.47
2022-09-09T14:43:54.874Z,66.40
2022-09-09T14:46:23.318Z,66.57
2022-09-09T14:48:52.043Z,66.30
2022-09-09T14:51:23.199Z,66.90
2022-09-09T14:53:53.960Z,67.17
2022-09-09T14:56:24.133Z,69.67
2022-09-09T14:58:55.732Z,66.37
2022-09-09T15:01:24.521Z,66.07
2022-09-09T15:03:53.844Z,66.20
2022-09-09T15:06:22.547Z,66.83
2022-09-09T15:08:53.082Z,65.87
2022-09-09T15:11:21.872Z,66.40
2022-09-09T15:13:55.412Z,66.23
2022-09-09T15:16:25.814Z,66.00
2022-09-09T15:18:55.378Z,66.20
2022-09-09T15:21:48.534Z,65.87
2022-09-09T15:24:17.168Z,65.80
2022-09-09T15:26:46.051Z,66.27
2022-09-09T15:29:15.596Z,66.83
2022-09-09T15:31:43.694Z,66.00
2022-09-09T15:34:11.729Z,66.27
2022-09-09T15:36:41.423Z,66.30
2022-09-09T15:39:13.546Z,65.90
2022-09-09T15:41:42.205Z,65.40
2022-09-09T15:44:11.292Z,67.97
2022-09-09T15:46:42.150Z,65.83
2022-09-09T15:49:12.691Z,65.80
2022-09-09T15:51:44.004Z,67.13
2022-09-09T15:54:13.968Z,66.77
2022-09-09T15:56:42.605Z,65.70
2022-09-09T15:59:10.911Z,67.60
2022-09-09T16:01:41.838Z,66.30
2022-09-09T16:04:10.119Z,65.70
2022-09-09T16:06:38.452Z,66.47
2022-09-09T16:09:08.533Z,66.00
2022-09-09T16:11:38.807Z,67.20
2022-09-09T16:14:07.764Z,69.37
2022-09-09T16:16:37.015Z,67.10
2022-09-09T16:19:08.092Z,66.93
2022-09-09T16:21:38.897Z,65.67
2022-09-09T16:24:08.359Z,66.37
2022-09-09T16:26:38.656Z,74.00
2022-09-09T16:29:06.875Z,65.90
2022-09-09T16:31:35.193Z,73.60
2022-09-09T16:34:04.326Z,67.17
2022-09-09T16:36:36.104Z,68.30
2022-09-09T16:39:06.204Z,66.37
2022-09-09T16:41:35.173Z,66.80
2022-09-09T16:44:06.444Z,65.87
2022-09-09T16:46:37.556Z,65.20
2022-09-09T16:49:07.137Z,66.57
2022-09-09T16:51:39.510Z,65.57
2022-09-09T16:54:09.279Z,67.00
2022-09-09T16:56:39.514Z,66.70
2022-09-09T16:59:09.510Z,68.07
2022-09-09T17:01:39.164Z,68.53
2022-09-09T17:04:08.982Z,65.97
2022-09-09T17:06:39.180Z,69.23
2022-09-09T17:09:08.685Z,65.77
2022-09-09T17:11:37.650Z,66.50
2022-09-09T17:14:05.951Z,65.67
2022-09-09T17:16:36.126Z,65.60
2022-09-09T17:19:05.811Z,67.50
2022-09-09T17:21:34.540Z,65.40
2022-09-09T17:24:05.099Z,67.10
2022-09-09T17:26:35.195Z,66.30
2022-09-09T17:29:04.688Z,66.10
2022-09-09T17:31:33.617Z,67.70
2022-09-09T17:34:02.396Z,67.10
2022-09-09T17:36:32.444Z,66.60
2022-09-09T17:39:01.817Z,65.27
2022-09-09T17:41:33.305Z,68.40
2022-09-09T17:44:01.852Z,65.97
2022-09-09T17:46:33.514Z,66.07
2022-09-09T17:49:03.262Z,67.83
2022-09-09T17:51:32.919Z,67.27
2022-09-09T17:54:02.826Z,65.40
2022-09-09T17:56:33.933Z,66.67
2022-09-09T17:59:03.272Z,66.57
2022-09-09T18:01:32.550Z,75.03
2022-09-09T18:04:02.048Z,71.07
2022-09-09T18:06:34.053Z,66.00
2022-09-09T18:09:03.461Z,66.17
2022-09-09T18:11:35.093Z,66.00
2022-09-09T18:14:04.315Z,65.63
2022-09-09T18:16:36.122Z,64.87
2022-09-09T18:19:05.189Z,65.80
2022-09-09T18:21:34.214Z,66.77
2022-09-09T18:24:03.737Z,65.87
2022-09-09T18:26:34.599Z,65.70
2022-09-09T18:29:05.327Z,65.07
2022-09-09T18:31:33.493Z,65.07
2022-09-09T18:34:04.644Z,65.90
2022-09-09T18:36:34.757Z,66.27
2022-09-09T18:39:04.565Z,65.20
2022-09-09T18:41:35.811Z,64.90
2022-09-09T18:44:07.087Z,67.00
2022-09-09T18:46:36.435Z,65.37
2022-09-09T18:49:06.237Z,65.77
2022-09-09T18:51:35.460Z,65.87
2022-09-09T18:54:05.496Z,65.63
2022-09-09T18:56:35.610Z,65.50
2022-09-09T18:59:06.651Z,69.27
2022-09-09T19:01:35.669Z,65.70
2022-09-09T19:04:06.221Z,65.67
2022-09-09T19:06:38.059Z,69.07
2022-09-09T19:09:06.334Z,70.00
2022-09-09T19:11:35.918Z,67.07
2022-09-09T19:14:05.955Z,66.87
2022-09-09T19:16:35.847Z,67.00
2022-09-09T19:19:06.160Z,65.90
2022-09-09T19:21:35.744Z,70.73
2022-09-09T19:24:07.639Z,66.97
2022-09-09T19:26:40.836Z,69.10
2022-09-09T19:29:10.927Z,67.00
2022-09-09T19:31:39.129Z,69.53
2022-09-09T19:34:09.776Z,69.50
2022-09-09T19:36:38.019Z,67.80
2022-09-09T19:39:07.232Z,68.93
2022-09-09T19:41:37.364Z,66.80
2022-09-09T19:44:07.133Z,64.40
2022-09-09T19:46:36.764Z,65.80
2022-09-09T19:49:05.896Z,64.47
2022-09-09T19:51:35.729Z,65.97
2022-09-09T19:54:06.410Z,65.37
2022-09-09T19:56:37.580Z,65.83
2022-09-09T19:59:08.070Z,67.97
2022-09-09T20:01:40.248Z,68.63
2022-09-09T20:04:09.274Z,67.23
2022-09-09T20:06:39.166Z,65.37
2022-09-09T20:09:10.382Z,66.43
2022-09-09T20:11:40.123Z,69.17
2022-09-09T20:14:08.426Z,65.77
2022-09-09T20:17:01.601Z,67.47
2022-09-09T20:19:29.723Z,65.07
2022-09-09T20:21:58.953Z,69.40
2022-09-09T20:24:26.964Z,67.30
2022-09-09T20:26:56.473Z,66.87
2022-09-09T20:29:26.000Z,65.70
2022-09-09T20:31:54.013Z,66.33
2022-09-09T20:34:22.960Z,65.80
2022-09-09T20:36:51.422Z,65.37
2022-09-09T20:39:20.921Z,66.07
2022-09-09T20:41:49.961Z,67.67
2022-09-09T20:44:21.848Z,67.50
2022-09-09T20:46:52.608Z,72.50
2022-09-09T20:49:22.526Z,66.57
2022-09-09T20:51:51.362Z,64.80
2022-09-09T20:54:20.846Z,66.43
2022-09-09T20:56:50.331Z,65.23
2022-09-09T20:59:21.435Z,65.47
2022-09-09T21:01:50.094Z,65.67
2022-09-09T21:04:20.699Z,66.33
2022-09-09T21:06:50.154Z,65.50
2022-09-09T21:09:19.341Z,66.60
2022-09-09T21:11:47.757Z,66.90
2022-09-09T21:14:15.957Z,67.07
2022-09-09T21:16:45.825Z,65.13
2022-09-09T21:19:13.858Z,65.00
2022-09-09T21:21:41.886Z,67.07
2022-09-09T21:24:10.542Z,67.30
2022-09-09T21:26:39.461Z,65.37
2022-09-09T21:29:07.513Z,67.47
2022-09-09T21:31:35.742Z,66.67
2022-09-09T21:34:05.470Z,65.93
2022-09-09T21:36:33.783Z,65.97
2022-09-09T21:39:01.927Z,69.50
2022-09-09T21:41:29.895Z,68.73
2022-09-09T21:43:58.105Z,69.07
2022-09-09T21:46:27.129Z,68.60
2022-09-09T21:48:57.024Z,67.57
2022-09-09T21:51:26.635Z,67.47
2022-09-09T21:53:58.403Z,66.13
2022-09-09T21:56:26.820Z,68.60
2022-09-09T21:58:59.680Z,66.63
2022-09-09T22:01:27.848Z,67.53
2022-09-09T22:03:55.862Z,69.97
2022-09-09T22:06:23.852Z,66.60
2022-09-09T22:08:53.739Z,67.83
2022-09-09T22:11:23.523Z,70.17
2022-09-09T22:13:53.222Z,70.00
2022-09-09T22:16:22.801Z,69.17
2022-09-09T22:18:55.245Z,67.87
2022-09-09T22:21:23.462Z,69.50
2022-09-09T22:23:56.642Z,67.00
2022-09-09T22:26:25.645Z,67.33
2022-09-09T22:28:54.565Z,68.17
2022-09-09T22:31:23.699Z,67.40
2022-09-09T22:33:52.221Z,67.40
2022-09-09T22:36:20.895Z,69.17
2022-09-09T22:38:49.090Z,71.97
2022-09-09T22:41:18.860Z,68.50
2022-09-09T22:43:47.710Z,68.50
2022-09-09T22:46:15.727Z,68.37
2022-09-09T22:48:44.063Z,69.90
2022-09-09T22:51:14.350Z,70.70
2022-09-09T22:53:43.486Z,69.50
2022-09-09T22:56:15.468Z,69.63
2022-09-09T22:58:45.055Z,69.97
2022-09-09T23:01:15.507Z,69.07
2022-09-09T23:03:46.043Z,70.63
2022-09-09T23:06:22.008Z,73.67
2022-09-09T23:08:52.122Z,70.27
2022-09-09T23:11:20.210Z,69.80
2022-09-09T23:13:52.609Z,68.50
2022-09-09T23:16:25.087Z,72.30
2022-09-09T23:18:55.140Z,69.47
2022-09-09T23:21:26.342Z,71.90
2022-09-09T23:23:54.923Z,69.50
2022-09-09T23:26:24.051Z,69.80
2022-09-09T23:28:58.359Z,69.50
2022-09-09T23:31:51.477Z,70.20
2022-09-09T23:34:19.462Z,68.73
2022-09-09T23:36:47.494Z,69.30
2022-09-09T23:39:15.505Z,69.07
2022-09-09T23:41:43.483Z,67.30
2022-09-09T23:44:12.901Z,72.60
2022-09-09T23:46:41.085Z,70.07
2022-09-09T23:49:09.662Z,69.43
2022-09-09T23:51:38.365Z,72.20
2022-09-09T23:54:07.357Z,66.47
2022-09-09T23:56:37.779Z,69.00
2022-09-09T23:59:06.689Z,73.97
